sensor_id;sensor_type;location;lat;lon;timestamp;P1;durP1;ratioP1;P2;durP2;ratioP2
68987;SDS011;56038;46.080;11.116;2023-09-07T00:02:56;2.70;;;2.45;;
68987;SDS011;56038;46.080;11.116;2023-09-07T00:07:58;3.70;;;2.88;;
68987;SDS011;56038;46.080;11.116;2023-09-07T00:13:00;2.97;;;2.70;;
68987;SDS011;56038;46.080;11.116;2023-09-07T00:18:03;3.75;;;2.75;;
68987;SDS011;56038;46.080;11.116;2023-09-07T00:23:05;4.55;;;2.83;;
68987;SDS011;56038;46.080;11.116;2023-09-07T00:28:07;3.20;;;2.90;;
68987;SDS011;56038;46.080;11.116;2023-09-07T00:33:10;3.10;;;2.65;;
68987;SDS011;56038;46.080;11.116;2023-09-07T00:38:12;2.97;;;2.63;;
68987;SDS011;56038;46.080;11.116;2023-09-07T00:43:14;2.80;;;2.60;;
68987;SDS011;56038;46.080;11.116;2023-09-07T00:48:17;3.13;;;2.70;;
68987;SDS011;56038;46.080;11.116;2023-09-07T00:53:20;3.85;;;2.20;;
68987;SDS011;56038;46.080;11.116;2023-09-07T00:58:25;2.90;;;2.60;;
68987;SDS011;56038;46.080;11.116;2023-09-07T01:03:29;2.50;;;2.30;;
68987;SDS011;56038;46.080;11.116;2023-09-07T01:08:32;2.45;;;2.25;;
68987;SDS011;56038;46.080;11.116;2023-09-07T01:13:36;2.47;;;2.10;;
68987;SDS011;56038;46.080;11.116;2023-09-07T01:18:39;2.83;;;2.47;;
68987;SDS011;56038;46.080;11.116;2023-09-07T01:23:43;2.85;;;2.60;;
68987;SDS011;56038;46.080;11.116;2023-09-07T01:28:47;3.40;;;2.35;;
68987;SDS011;56038;46.080;11.116;2023-09-07T01:33:50;2.60;;;2.10;;
68987;SDS011;56038;46.080;11.116;2023-09-07T01:38:53;3.47;;;2.50;;
68987;SDS011;56038;46.080;11.116;2023-09-07T01:43:55;2.85;;;2.53;;
68987;SDS011;56038;46.080;11.116;2023-09-07T01:48:56;3.88;;;2.60;;
68987;SDS011;56038;46.080;11.116;2023-09-07T01:53:59;2.58;;;2.33;;
68987;SDS011;56038;46.080;11.116;2023-09-07T01:59:01;2.65;;;2.38;;
68987;SDS011;56038;46.080;11.116;2023-09-07T02:04:03;2.60;;;2.40;;
68987;SDS011;56038;46.080;11.116;2023-09-07T02:09:06;2.72;;;2.53;;
68987;SDS011;56038;46.080;11.116;2023-09-07T02:14:08;2.95;;;2.40;;
68987;SDS011;56038;46.080;11.116;2023-09-07T02:19:11;3.42;;;2.58;;
68987;SDS011;56038;46.080;11.116;2023-09-07T02:24:14;2.92;;;2.53;;
68987;SDS011;56038;46.080;11.116;2023-09-07T02:29:15;2.88;;;2.33;;
68987;SDS011;56038;46.080;11.116;2023-09-07T02:34:17;3.63;;;2.65;;
68987;SDS011;56038;46.080;11.116;2023-09-07T02:39:20;2.63;;;2.42;;
68987;SDS011;56038;46.080;11.116;2023-09-07T02:44:22;2.55;;;2.35;;
68987;SDS011;56038;46.080;11.116;2023-09-07T02:49:23;2.80;;;2.60;;
68987;SDS011;56038;46.080;11.116;2023-09-07T02:54:26;3.55;;;2.97;;
68987;SDS011;56038;46.080;11.116;2023-09-07T02:59:29;4.50;;;2.92;;
68987;SDS011;56038;46.080;11.116;2023-09-07T03:04:31;4.25;;;3.03;;
68987;SDS011;56038;46.080;11.116;2023-09-07T03:09:34;3.60;;;2.88;;
68987;SDS011;56038;46.080;11.116;2023-09-07T03:14:36;2.85;;;2.30;;
68987;SDS011;56038;46.080;11.116;2023-09-07T03:19:37;3.83;;;2.95;;
68987;SDS011;56038;46.080;11.116;2023-09-07T03:24:40;2.97;;;2.60;;
68987;SDS011;56038;46.080;11.116;2023-09-07T03:29:43;3.08;;;2.55;;
68987;SDS011;56038;46.080;11.116;2023-09-07T03:34:45;4.78;;;2.72;;
68987;SDS011;56038;46.080;11.116;2023-09-07T03:39:48;3.13;;;2.83;;
68987;SDS011;56038;46.080;11.116;2023-09-07T03:44:51;3.45;;;2.95;;
68987;SDS011;56038;46.080;11.116;2023-09-07T03:49:52;2.75;;;2.00;;
68987;SDS011;56038;46.080;11.116;2023-09-07T03:54:56;3.53;;;2.50;;
68987;SDS011;56038;46.080;11.116;2023-09-07T03:59:58;3.63;;;2.95;;
68987;SDS011;56038;46.080;11.116;2023-09-07T04:04:59;3.20;;;2.75;;
68987;SDS011;56038;46.080;11.116;2023-09-07T04:10:03;4.57;;;3.65;;
68987;SDS011;56038;46.080;11.116;2023-09-07T04:15:06;3.17;;;2.88;;
68987;SDS011;56038;46.080;11.116;2023-09-07T04:20:09;2.97;;;2.78;;
68987;SDS011;56038;46.080;11.116;2023-09-07T04:25:13;4.03;;;2.88;;
68987;SDS011;56038;46.080;11.116;2023-09-07T04:30:15;4.80;;;3.15;;
68987;SDS011;56038;46.080;11.116;2023-09-07T04:35:16;3.42;;;2.80;;
68987;SDS011;56038;46.080;11.116;2023-09-07T04:40:20;4.60;;;3.10;;
68987;SDS011;56038;46.080;11.116;2023-09-07T04:45:21;3.17;;;2.88;;
68987;SDS011;56038;46.080;11.116;2023-09-07T04:50:23;3.53;;;3.17;;
68987;SDS011;56038;46.080;11.116;2023-09-07T04:55:27;4.05;;;3.65;;
68987;SDS011;56038;46.080;11.116;2023-09-07T05:00:28;6.25;;;3.20;;
68987;SDS011;56038;46.080;11.116;2023-09-07T05:05:30;3.22;;;2.90;;
68987;SDS011;56038;46.080;11.116;2023-09-07T05:10:33;3.38;;;2.85;;
68987;SDS011;56038;46.080;11.116;2023-09-07T05:15:35;2.97;;;2.67;;
68987;SDS011;56038;46.080;11.116;2023-09-07T05:20:37;3.80;;;2.97;;
68987;SDS011;56038;46.080;11.116;2023-09-07T05:25:43;3.38;;;2.95;;
68987;SDS011;56038;46.080;11.116;2023-09-07T05:30:46;2.83;;;2.60;;
68987;SDS011;56038;46.080;11.116;2023-09-07T05:35:48;3.45;;;3.00;;
68987;SDS011;56038;46.080;11.116;2023-09-07T05:40:51;3.55;;;3.20;;
68987;SDS011;56038;46.080;11.116;2023-09-07T05:45:54;6.40;;;3.70;;
68987;SDS011;56038;46.080;11.116;2023-09-07T05:50:56;3.47;;;3.15;;
68987;SDS011;56038;46.080;11.116;2023-09-07T05:55:59;4.55;;;3.60;;
68987;SDS011;56038;46.080;11.116;2023-09-07T06:01:01;4.38;;;3.60;;
68987;SDS011;56038;46.080;11.116;2023-09-07T06:06:04;3.97;;;3.08;;
68987;SDS011;56038;46.080;11.116;2023-09-07T06:11:08;4.93;;;3.90;;
68987;SDS011;56038;46.080;11.116;2023-09-07T06:16:10;3.60;;;3.28;;
68987;SDS011;56038;46.080;11.116;2023-09-07T06:21:12;3.75;;;3.28;;
68987;SDS011;56038;46.080;11.116;2023-09-07T06:26:15;4.22;;;3.38;;
68987;SDS011;56038;46.080;11.116;2023-09-07T06:31:17;3.78;;;3.00;;
68987;SDS011;56038;46.080;11.116;2023-09-07T06:36:19;3.53;;;2.90;;
68987;SDS011;56038;46.080;11.116;2023-09-07T06:41:22;5.05;;;3.20;;
68987;SDS011;56038;46.080;11.116;2023-09-07T06:46:24;4.25;;;3.13;;
68987;SDS011;56038;46.080;11.116;2023-09-07T06:51:25;5.50;;;3.15;;
68987;SDS011;56038;46.080;11.116;2023-09-07T06:56:28;3.58;;;3.20;;
68987;SDS011;56038;46.080;11.116;2023-09-07T07:01:31;4.50;;;3.28;;
68987;SDS011;56038;46.080;11.116;2023-09-07T07:06:33;5.20;;;3.50;;
68987;SDS011;56038;46.080;11.116;2023-09-07T07:11:36;4.68;;;3.75;;
68987;SDS011;56038;46.080;11.116;2023-09-07T07:16:39;5.68;;;3.28;;
68987;SDS011;56038;46.080;11.116;2023-09-07T07:21:40;3.72;;;3.03;;
68987;SDS011;56038;46.080;11.116;2023-09-07T07:26:43;3.92;;;3.20;;
68987;SDS011;56038;46.080;11.116;2023-09-07T07:31:45;3.90;;;3.35;;
68987;SDS011;56038;46.080;11.116;2023-09-07T07:36:47;7.00;;;4.05;;
68987;SDS011;56038;46.080;11.116;2023-09-07T07:41:50;3.20;;;2.90;;
68987;SDS011;56038;46.080;11.116;2023-09-07T07:46:52;3.83;;;3.40;;
68987;SDS011;56038;46.080;11.116;2023-09-07T07:51:54;4.45;;;3.20;;
68987;SDS011;56038;46.080;11.116;2023-09-07T07:56:58;4.45;;;3.45;;
68987;SDS011;56038;46.080;11.116;2023-09-07T08:02:00;4.82;;;3.42;;
68987;SDS011;56038;46.080;11.116;2023-09-07T08:07:03;3.20;;;2.90;;
68987;SDS011;56038;46.080;11.116;2023-09-07T08:12:06;5.00;;;3.63;;
68987;SDS011;56038;46.080;11.116;2023-09-07T08:17:08;3.85;;;3.45;;
68987;SDS011;56038;46.080;11.116;2023-09-07T08:22:10;4.38;;;3.47;;
68987;SDS011;56038;46.080;11.116;2023-09-07T08:27:13;5.90;;;3.75;;
68987;SDS011;56038;46.080;11.116;2023-09-07T08:32:18;6.15;;;3.75;;
68987;SDS011;56038;46.080;11.116;2023-09-07T08:37:20;3.47;;;3.17;;
68987;SDS011;56038;46.080;11.116;2023-09-07T08:42:23;3.95;;;3.10;;
68987;SDS011;56038;46.080;11.116;2023-09-07T08:47:25;3.72;;;3.42;;
68987;SDS011;56038;46.080;11.116;2023-09-07T08:52:30;4.65;;;3.60;;
68987;SDS011;56038;46.080;11.116;2023-09-07T08:57:33;3.85;;;2.90;;
68987;SDS011;56038;46.080;11.116;2023-09-07T09:02:35;4.68;;;2.88;;
68987;SDS011;56038;46.080;11.116;2023-09-07T09:07:37;3.78;;;3.20;;
68987;SDS011;56038;46.080;11.116;2023-09-07T09:12:46;4.40;;;3.35;;
68987;SDS011;56038;46.080;11.116;2023-09-07T09:17:47;3.65;;;3.35;;
68987;SDS011;56038;46.080;11.116;2023-09-07T09:22:52;3.83;;;2.78;;
68987;SDS011;56038;46.080;11.116;2023-09-07T09:27:56;4.10;;;3.20;;
68987;SDS011;56038;46.080;11.116;2023-09-07T09:32:58;4.93;;;2.92;;
68987;SDS011;56038;46.080;11.116;2023-09-07T09:38:00;3.63;;;3.13;;
68987;SDS011;56038;46.080;11.116;2023-09-07T09:48:07;3.38;;;3.08;;
68987;SDS011;56038;46.080;11.116;2023-09-07T09:53:10;3.25;;;3.00;;
68987;SDS011;56038;46.080;11.116;2023-09-07T09:58:17;3.45;;;3.15;;
68987;SDS011;56038;46.080;11.116;2023-09-07T10:03:20;3.83;;;2.97;;
68987;SDS011;56038;46.080;11.116;2023-09-07T10:08:26;3.80;;;3.30;;
68987;SDS011;56038;46.080;11.116;2023-09-07T10:13:32;3.90;;;3.15;;
68987;SDS011;56038;46.080;11.116;2023-09-07T10:18:36;3.85;;;3.28;;
68987;SDS011;56038;46.080;11.116;2023-09-07T10:23:39;3.47;;;3.17;;
68987;SDS011;56038;46.080;11.116;2023-09-07T10:28:44;5.83;;;3.00;;
68987;SDS011;56038;46.080;11.116;2023-09-07T10:33:46;3.15;;;2.88;;
68987;SDS011;56038;46.080;11.116;2023-09-07T10:38:49;3.33;;;3.00;;
68987;SDS011;56038;46.080;11.116;2023-09-07T10:48:56;2.70;;;2.50;;
68987;SDS011;56038;46.080;11.116;2023-09-07T10:53:59;2.58;;;2.38;;
68987;SDS011;56038;46.080;11.116;2023-09-07T10:59:02;2.75;;;2.53;;
68987;SDS011;56038;46.080;11.116;2023-09-07T11:04:04;3.10;;;2.90;;
68987;SDS011;56038;46.080;11.116;2023-09-07T11:14:12;3.03;;;2.70;;
68987;SDS011;56038;46.080;11.116;2023-09-07T11:19:13;3.23;;;2.93;;
68987;SDS011;56038;46.080;11.116;2023-09-07T11:24:15;2.72;;;2.53;;
68987;SDS011;56038;46.080;11.116;2023-09-07T11:29:18;3.22;;;2.92;;
68987;SDS011;56038;46.080;11.116;2023-09-07T11:34:20;3.57;;;2.20;;
68987;SDS011;56038;46.080;11.116;2023-09-07T11:39:22;2.58;;;2.38;;
68987;SDS011;56038;46.080;11.116;2023-09-07T11:44:25;3.00;;;2.10;;
68987;SDS011;56038;46.080;11.116;2023-09-07T11:49:26;2.10;;;2.00;;
68987;SDS011;56038;46.080;11.116;2023-09-07T11:54:28;2.63;;;2.20;;
68987;SDS011;56038;46.080;11.116;2023-09-07T11:59:31;2.42;;;2.15;;
68987;SDS011;56038;46.080;11.116;2023-09-07T12:04:34;2.05;;;1.95;;
68987;SDS011;56038;46.080;11.116;2023-09-07T12:09:37;2.03;;;1.92;;
68987;SDS011;56038;46.080;11.116;2023-09-07T12:14:40;3.08;;;2.53;;
68987;SDS011;56038;46.080;11.116;2023-09-07T12:19:42;2.75;;;2.55;;
68987;SDS011;56038;46.080;11.116;2023-09-07T12:24:45;2.60;;;2.40;;
68987;SDS011;56038;46.080;11.116;2023-09-07T12:29:48;2.17;;;1.98;;
68987;SDS011;56038;46.080;11.116;2023-09-07T12:34:50;2.78;;;2.17;;
68987;SDS011;56038;46.080;11.116;2023-09-07T12:39:53;2.53;;;2.33;;
68987;SDS011;56038;46.080;11.116;2023-09-07T12:44:56;1.90;;;1.80;;
68987;SDS011;56038;46.080;11.116;2023-09-07T12:49:58;2.63;;;2.17;;
68987;SDS011;56038;46.080;11.116;2023-09-07T12:55:00;2.00;;;1.90;;
68987;SDS011;56038;46.080;11.116;2023-09-07T13:00:03;3.13;;;2.30;;
68987;SDS011;56038;46.080;11.116;2023-09-07T13:05:06;2.03;;;1.90;;
68987;SDS011;56038;46.080;11.116;2023-09-07T13:10:08;2.10;;;1.87;;
68987;SDS011;56038;46.080;11.116;2023-09-07T13:15:12;2.00;;;1.80;;
68987;SDS011;56038;46.080;11.116;2023-09-07T13:20:14;1.83;;;1.73;;
68987;SDS011;56038;46.080;11.116;2023-09-07T13:25:16;2.03;;;1.93;;
68987;SDS011;56038;46.080;11.116;2023-09-07T13:30:19;1.98;;;1.50;;
68987;SDS011;56038;46.080;11.116;2023-09-07T13:35:21;4.53;;;2.10;;
68987;SDS011;56038;46.080;11.116;2023-09-07T13:40:22;2.63;;;2.42;;
68987;SDS011;56038;46.080;11.116;2023-09-07T13:45:30;2.22;;;1.98;;
68987;SDS011;56038;46.080;11.116;2023-09-07T13:50:32;2.40;;;2.20;;
68987;SDS011;56038;46.080;11.116;2023-09-07T13:55:34;2.53;;;2.33;;
68987;SDS011;56038;46.080;11.116;2023-09-07T14:00:37;2.30;;;2.10;;
68987;SDS011;56038;46.080;11.116;2023-09-07T14:05:39;1.90;;;1.80;;
68987;SDS011;56038;46.080;11.116;2023-09-07T14:10:40;1.75;;;1.63;;
68987;SDS011;56038;46.080;11.116;2023-09-07T14:15:43;2.22;;;2.00;;
68987;SDS011;56038;46.080;11.116;2023-09-07T14:20:46;2.00;;;1.90;;
68987;SDS011;56038;46.080;11.116;2023-09-07T14:25:47;1.52;;;1.42;;
68987;SDS011;56038;46.080;11.116;2023-09-07T14:30:50;1.98;;;1.83;;
68987;SDS011;56038;46.080;11.116;2023-09-07T14:46:15;2.65;;;1.70;;
68987;SDS011;56038;46.080;11.116;2023-09-07T15:02:18;1.67;;;1.58;;
68987;SDS011;56038;46.080;11.116;2023-09-07T15:07:19;3.17;;;2.10;;
68987;SDS011;56038;46.080;11.116;2023-09-07T15:12:25;2.17;;;1.87;;
68987;SDS011;56038;46.080;11.116;2023-09-07T15:17:48;2.90;;;1.88;;
68987;SDS011;56038;46.080;11.116;2023-09-07T15:23:17;1.95;;;1.83;;
68987;SDS011;56038;46.080;11.116;2023-09-07T15:28:19;2.25;;;2.00;;
68987;SDS011;56038;46.080;11.116;2023-09-07T15:33:22;2.92;;;2.30;;
68987;SDS011;56038;46.080;11.116;2023-09-07T15:38:24;2.03;;;1.92;;
68987;SDS011;56038;46.080;11.116;2023-09-07T15:43:26;2.35;;;1.90;;
68987;SDS011;56038;46.080;11.116;2023-09-07T15:48:29;2.63;;;2.15;;
68987;SDS011;56038;46.080;11.116;2023-09-07T15:53:32;2.00;;;1.90;;
68987;SDS011;56038;46.080;11.116;2023-09-07T15:58:34;2.25;;;2.05;;
68987;SDS011;56038;46.080;11.116;2023-09-07T16:03:37;2.88;;;2.10;;
68987;SDS011;56038;46.080;11.116;2023-09-07T16:08:39;1.70;;;1.60;;
68987;SDS011;56038;46.080;11.116;2023-09-07T16:13:40;2.72;;;2.00;;
68987;SDS011;56038;46.080;11.116;2023-09-07T16:18:43;2.20;;;2.05;;
68987;SDS011;56038;46.080;11.116;2023-09-07T16:23:45;2.47;;;1.87;;
68987;SDS011;56038;46.080;11.116;2023-09-07T16:28:47;3.15;;;2.20;;
68987;SDS011;56038;46.080;11.116;2023-09-07T16:33:51;4.55;;;2.25;;
68987;SDS011;56038;46.080;11.116;2023-09-07T16:38:53;2.08;;;1.88;;
68987;SDS011;56038;46.080;11.116;2023-09-07T16:43:55;3.08;;;2.40;;
68987;SDS011;56038;46.080;11.116;2023-09-07T16:48:58;2.40;;;2.20;;
68987;SDS011;56038;46.080;11.116;2023-09-07T16:54:00;1.97;;;1.87;;
68987;SDS011;56038;46.080;11.116;2023-09-07T16:59:03;2.22;;;2.03;;
68987;SDS011;56038;46.080;11.116;2023-09-07T17:04:07;2.88;;;2.20;;
68987;SDS011;56038;46.080;11.116;2023-09-07T17:09:09;2.08;;;1.90;;
68987;SDS011;56038;46.080;11.116;2023-09-07T17:14:12;2.80;;;2.60;;
68987;SDS011;56038;46.080;11.116;2023-09-07T17:19:15;2.25;;;2.05;;
68987;SDS011;56038;46.080;11.116;2023-09-07T17:24:17;2.20;;;2.03;;
68987;SDS011;56038;46.080;11.116;2023-09-07T17:29:19;3.40;;;2.40;;
68987;SDS011;56038;46.080;11.116;2023-09-07T17:34:23;2.38;;;2.10;;
68987;SDS011;56038;46.080;11.116;2023-09-07T17:39:25;2.30;;;2.10;;
68987;SDS011;56038;46.080;11.116;2023-09-07T17:44:27;3.10;;;2.33;;
68987;SDS011;56038;46.080;11.116;2023-09-07T17:49:30;2.15;;;2.05;;
68987;SDS011;56038;46.080;11.116;2023-09-07T17:54:32;2.72;;;2.30;;
68987;SDS011;56038;46.080;11.116;2023-09-07T17:59:33;3.65;;;2.03;;
68987;SDS011;56038;46.080;11.116;2023-09-07T18:04:36;2.10;;;1.98;;
68987;SDS011;56038;46.080;11.116;2023-09-07T18:09:38;2.58;;;2.35;;
68987;SDS011;56038;46.080;11.116;2023-09-07T18:14:39;2.17;;;1.98;;
68987;SDS011;56038;46.080;11.116;2023-09-07T18:19:43;2.60;;;2.40;;
68987;SDS011;56038;46.080;11.116;2023-09-07T18:24:44;2.38;;;2.25;;
68987;SDS011;56038;46.080;11.116;2023-09-07T18:29:46;3.47;;;2.55;;
68987;SDS011;56038;46.080;11.116;2023-09-07T18:34:49;2.63;;;2.42;;
68987;SDS011;56038;46.080;11.116;2023-09-07T18:39:51;3.22;;;2.70;;
68987;SDS011;56038;46.080;11.116;2023-09-07T18:44:53;2.70;;;2.25;;
68987;SDS011;56038;46.080;11.116;2023-09-07T18:49:56;2.30;;;2.10;;
68987;SDS011;56038;46.080;11.116;2023-09-07T18:54:57;2.63;;;2.38;;
68987;SDS011;56038;46.080;11.116;2023-09-07T18:59:59;2.75;;;2.40;;
68987;SDS011;56038;46.080;11.116;2023-09-07T19:05:02;2.97;;;2.33;;
68987;SDS011;56038;46.080;11.116;2023-09-07T19:10:05;2.30;;;2.10;;
68987;SDS011;56038;46.080;11.116;2023-09-07T19:15:07;3.08;;;2.70;;
68987;SDS011;56038;46.080;11.116;2023-09-07T19:20:13;2.38;;;2.17;;
68987;SDS011;56038;46.080;11.116;2023-09-07T19:25:15;2.83;;;2.53;;
68987;SDS011;56038;46.080;11.116;2023-09-07T19:30:17;2.28;;;2.08;;
68987;SDS011;56038;46.080;11.116;2023-09-07T19:35:20;3.22;;;2.33;;
68987;SDS011;56038;46.080;11.116;2023-09-07T19:40:22;3.10;;;2.80;;
68987;SDS011;56038;46.080;11.116;2023-09-07T19:45:23;2.85;;;2.65;;
68987;SDS011;56038;46.080;11.116;2023-09-07T19:50:27;2.53;;;2.33;;
68987;SDS011;56038;46.080;11.116;2023-09-07T19:55:28;4.68;;;2.65;;
68987;SDS011;56038;46.080;11.116;2023-09-07T20:00:30;2.92;;;2.72;;
68987;SDS011;56038;46.080;11.116;2023-09-07T20:05:33;5.10;;;2.85;;
68987;SDS011;56038;46.080;11.116;2023-09-07T20:10:35;3.78;;;2.53;;
68987;SDS011;56038;46.080;11.116;2023-09-07T20:15:36;3.13;;;2.83;;
68987;SDS011;56038;46.080;11.116;2023-09-07T20:20:40;3.00;;;2.80;;
68987;SDS011;56038;46.080;11.116;2023-09-07T20:25:41;3.50;;;2.80;;
68987;SDS011;56038;46.080;11.116;2023-09-07T20:30:43;3.53;;;2.85;;
68987;SDS011;56038;46.080;11.116;2023-09-07T20:35:49;2.92;;;2.67;;
68987;SDS011;56038;46.080;11.116;2023-09-07T20:40:51;3.03;;;2.72;;
68987;SDS011;56038;46.080;11.116;2023-09-07T20:45:53;4.05;;;2.88;;
68987;SDS011;56038;46.080;11.116;2023-09-07T20:50:56;4.72;;;2.70;;
68987;SDS011;56038;46.080;11.116;2023-09-07T20:55:58;3.30;;;2.90;;
68987;SDS011;56038;46.080;11.116;2023-09-07T21:01:00;4.05;;;2.90;;
68987;SDS011;56038;46.080;11.116;2023-09-07T21:06:06;3.58;;;2.58;;
68987;SDS011;56038;46.080;11.116;2023-09-07T21:11:10;4.53;;;3.28;;
68987;SDS011;56038;46.080;11.116;2023-09-07T21:16:12;3.15;;;2.85;;
68987;SDS011;56038;46.080;11.116;2023-09-07T21:21:15;3.13;;;2.83;;
68987;SDS011;56038;46.080;11.116;2023-09-07T21:26:17;3.28;;;2.88;;
68987;SDS011;56038;46.080;11.116;2023-09-07T21:31:18;2.92;;;2.63;;
68987;SDS011;56038;46.080;11.116;2023-09-07T21:36:22;2.65;;;2.45;;
68987;SDS011;56038;46.080;11.116;2023-09-07T21:41:24;2.78;;;2.50;;
68987;SDS011;56038;46.080;11.116;2023-09-07T21:46:26;3.78;;;2.72;;
68987;SDS011;56038;46.080;11.116;2023-09-07T21:51:29;3.22;;;2.70;;
68987;SDS011;56038;46.080;11.116;2023-09-07T21:56:31;5.28;;;2.92;;
68987;SDS011;56038;46.080;11.116;2023-09-07T22:01:33;3.85;;;2.90;;
68987;SDS011;56038;46.080;11.116;2023-09-07T22:06:37;3.33;;;3.00;;
68987;SDS011;56038;46.080;11.116;2023-09-07T22:11:39;3.15;;;2.88;;
68987;SDS011;56038;46.080;11.116;2023-09-07T22:16:41;4.07;;;3.10;;
68987;SDS011;56038;46.080;11.116;2023-09-07T22:21:44;3.90;;;2.53;;
68987;SDS011;56038;46.080;11.116;2023-09-07T22:26:46;2.83;;;2.63;;
68987;SDS011;56038;46.080;11.116;2023-09-07T22:36:53;3.72;;;3.35;;
68987;SDS011;56038;46.080;11.116;2023-09-07T22:41:55;4.35;;;3.35;;
68987;SDS011;56038;46.080;11.116;2023-09-07T22:46:57;5.10;;;2.65;;
68987;SDS011;56038;46.080;11.116;2023-09-07T22:52:00;2.95;;;2.75;;
68987;SDS011;56038;46.080;11.116;2023-09-07T22:57:03;4.03;;;2.93;;
68987;SDS011;56038;46.080;11.116;2023-09-07T23:02:04;3.33;;;3.03;;
68987;SDS011;56038;46.080;11.116;2023-09-07T23:07:08;3.38;;;2.92;;
68987;SDS011;56038;46.080;11.116;2023-09-07T23:12:09;4.43;;;3.15;;
68987;SDS011;56038;46.080;11.116;2023-09-07T23:17:12;3.55;;;3.00;;
68987;SDS011;56038;46.080;11.116;2023-09-07T23:22:15;3.33;;;2.70;;
68987;SDS011;56038;46.080;11.116;2023-09-07T23:27:17;3.28;;;3.00;;
68987;SDS011;56038;46.080;11.116;2023-09-07T23:32:19;4.30;;;3.45;;
68987;SDS011;56038;46.080;11.116;2023-09-07T23:37:23;3.22;;;2.92;;
68987;SDS011;56038;46.080;11.116;2023-09-07T23:42:25;3.83;;;3.40;;
68987;SDS011;56038;46.080;11.116;2023-09-07T23:47:27;3.80;;;3.35;;
68987;SDS011;56038;46.080;11.116;2023-09-07T23:52:30;3.92;;;3.60;;
68987;SDS011;56038;46.080;11.116;2023-09-07T23:57:32;6.32;;;3.80;;
